Nashville, TN (37203)

1:33 PM CST on December 27, 2014 (GMT -0600)
APRSWXNET Nashville TN US | Change Station
CLOSE
Current Station
Personal Weather Station
Location: Nashville, TN
Elevation: 728 ft
Nearby Weather Stations

Elev 728 ft 36.14 °N, 86.80 °W | Updated 33 minutes ago

Rain
Rain
53 °F
Feels Like 53 °F
N
4
Wind Variable Wind from South
Gusts 10.0 mph

Today
High -- | Low -- °F
--% Chance of Precip.
Yesterday
High -- | Low -- °F
Precip. -- in
6:56 AM 4:39 PM
Waxing Crescent, 39% visible
Pressure 30.16 in
Visibility 6.0 miles
Clouds Scattered Clouds 4500 ft
Mostly Cloudy 7000 ft
Overcast 9000 ft
Dew Point 46 °F
Humidity 78%
Rainfall 0.00 in
Snow Depth Not available.
UV 1 out of 12
Pollen .10 out of 12
Air Quality Not available.
Flu Activity Not available.
METAR KBNA 271853Z 20015KT 6SM RA BR SCT045 BKN070 OVC090 11/07 A3016

More Conditions Fewer Conditions

Pressure 30.16 in
Visibility 6.0 miles
Clouds Scattered Clouds 4500 ft
Mostly Cloudy 7000 ft
Overcast 9000 ft
Dew Point 46 °F
Humidity 78%
Rainfall 0.00 in
Snow Depth Not available.
UV 1 out of 12
Pollen .10 out of 12
Air Quality Not available.
Flu Activity Not available.
METAR KBNA 271853Z 20015KT 6SM RA BR SCT045 BKN070 OVC090 11/07 A3016

More Conditions Fewer Conditions

10-Day Weather Forecast

Almanac

Astronomy

Dec. 27, 2014 Rise Set
Actual Time
Civil Twilight
Nautical Twilight
Astronomical Twilight
Moon
Length of Visible Light
Length of Day
Tomorrow will be .
, % of the Moon is Illuminated

Today's Extremes

State Highs State Lows

Community

WunderPhotos

Upload Photos

1,781,027 photos uploaded!

WunderBlogs® & News

Nearby

Air Quality

  Air Quality AQ Index Pollutant
Not available.

Snow Depth

Station Depth Elevation

Earthquake Activity

City Distance Mag. Time & Date
Minimum magnitude displayed is 2.5.

Coastal Water Temperatures

Place Temperature

Nearby Weather Stations